Time;durP1;ratioP1;P1;durP2;ratioP2;P2;SDS_P1;SDS_P2;PMS_P1;PMS_P2;Temp;Humidity;BMP_temperature;BMP_pressure;BME280_temperature;BME280_humidity;BME280_pressure;Samples;Min_cycle;Max_cycle;Signal;HPM_P1;HPM_P2
2021/07/29 00:01:31;;;;;;;0.40;0.20;;;17.60;99.90;;;;;;5091520;28;20381;-76
2021/07/29 00:03:57;;;;;;;0.40;0.30;;;17.70;99.90;;;;;;5090812;28;20385;-75
2021/07/29 00:06:22;;;;;;;0.40;0.20;;;17.40;99.90;;;;;;5091284;28;20381;-75
2021/07/29 00:08:48;;;;;;;0.40;0.30;;;17.60;99.90;;;;;;5091334;28;20471;-75
2021/07/29 00:11:20;;;;;;;0.40;0.20;;;17.70;99.90;;;;;;5090796;28;20898;-75
2021/07/29 00:13:46;;;;;;;0.40;0.30;;;17.70;99.90;;;;;;5091241;28;20370;-75
2021/07/29 00:16:12;;;;;;;0.40;0.22;;;17.60;99.90;;;;;;5090385;28;20379;-75
2021/07/29 00:21:22;;;;;;;0.40;0.20;;;17.60;99.90;;;;;;5090991;28;20435;-75
2021/07/29 00:23:49;;;;;;;0.40;0.20;;;17.60;99.90;;;;;;5091194;28;20382;-75
2021/07/29 00:26:16;;;;;;;0.40;0.20;;;17.50;99.90;;;;;;5090077;28;21051;-75
2021/07/29 00:28:42;;;;;;;0.40;0.20;;;17.40;99.90;;;;;;5091393;28;20480;-75
2021/07/29 00:31:08;;;;;;;0.40;0.20;;;17.50;99.90;;;;;;5090368;28;20460;-75
2021/07/29 00:33:33;;;;;;;0.40;0.20;;;17.40;99.90;;;;;;5091222;28;20443;-76
2021/07/29 00:35:59;;;;;;;0.40;0.20;;;17.40;99.90;;;;;;5090342;28;20366;-75
2021/07/29 00:38:25;;;;;;;0.40;0.30;;;17.30;99.90;;;;;;5090909;28;20393;-75
2021/07/29 00:40:51;;;;;;;0.40;0.20;;;17.30;99.90;;;;;;5090935;28;20888;-75
2021/07/29 00:43:16;;;;;;;0.40;0.30;;;17.40;99.90;;;;;;5072076;28;20414;-75
2021/07/29 00:45:45;;;;;;;0.40;0.30;;;17.30;99.90;;;;;;5091036;28;20378;-75
2021/07/29 00:48:13;;;;;;;0.40;0.20;;;17.20;99.90;;;;;;5090277;28;20386;-74
2021/07/29 00:50:39;;;;;;;0.50;0.50;;;17.20;99.90;;;;;;5072639;28;20406;-76
2021/07/29 00:53:08;;;;;;;0.40;0.20;;;17.30;99.90;;;;;;5072139;28;20382;-77
2021/07/29 00:55:34;;;;;;;0.40;0.20;;;17.20;99.90;;;;;;5090641;28;20738;-76
2021/07/29 00:58:00;;;;;;;0.40;0.20;;;17.10;99.90;;;;;;5090053;28;20413;-76
2021/07/29 01:00:26;;;;;;;0.40;0.20;;;17.10;99.90;;;;;;5090881;28;20378;-77
2021/07/29 01:02:54;;;;;;;0.40;0.20;;;17.10;99.90;;;;;;5072662;28;20775;-76
2021/07/29 01:05:21;;;;;;;0.40;0.20;;;17.00;99.90;;;;;;5089808;28;20417;-76
2021/07/29 01:07:48;;;;;;;0.40;0.30;;;17.00;99.90;;;;;;5090674;28;20436;-76
2021/07/29 01:10:13;;;;;;;0.40;0.30;;;17.00;99.90;;;;;;5089729;28;20410;-76
2021/07/29 01:12:39;;;;;;;0.50;0.40;;;16.90;99.90;;;;;;5090721;28;20377;-76
2021/07/29 01:15:05;;;;;;;0.40;0.30;;;17.00;99.90;;;;;;5089515;28;20473;-76
2021/07/29 01:17:32;;;;;;;0.40;0.30;;;16.90;99.90;;;;;;5090733;28;20378;-76
2021/07/29 01:19:59;;;;;;;0.40;0.20;;;17.00;99.90;;;;;;5089944;28;20403;-75
2021/07/29 01:22:33;;;;;;;0.40;0.20;;;17.00;99.90;;;;;;5091025;28;20378;-76
2021/07/29 01:24:59;;;;;;;0.40;0.20;;;17.00;99.90;;;;;;5090457;28;20378;-76
2021/07/29 01:27:29;;;;;;;0.40;0.20;;;17.00;99.90;;;;;;5094210;28;20808;-76
2021/07/29 01:30:00;;;;;;;0.40;0.30;;;17.10;99.90;;;;;;5095059;28;20393;-77
2021/07/29 01:32:27;;;;;;;0.40;0.20;;;17.10;99.90;;;;;;5095125;28;20466;-74
2021/07/29 01:34:53;;;;;;;0.40;0.20;;;17.00;99.90;;;;;;5094905;28;20843;-76
2021/07/29 01:37:19;;;;;;;0.40;0.20;;;17.00;99.90;;;;;;5094436;28;20435;-77
2021/07/29 01:39:45;;;;;;;0.40;0.20;;;17.00;99.90;;;;;;5094494;28;20381;-75
2021/07/29 01:42:10;;;;;;;0.40;0.20;;;17.00;99.90;;;;;;5075528;28;20787;-74
2021/07/29 01:44:36;;;;;;;0.40;0.20;;;17.00;99.90;;;;;;5094121;28;20370;-75
2021/07/29 01:47:01;;;;;;;0.40;0.20;;;17.00;99.90;;;;;;5093927;28;20389;-75
2021/07/29 01:49:27;;;;;;;0.40;0.20;;;17.00;99.90;;;;;;5094463;28;20457;-75
2021/07/29 01:51:53;;;;;;;0.40;0.20;;;17.00;99.90;;;;;;5109923;28;20413;-75
2021/07/29 01:54:18;;;;;;;0.40;0.30;;;17.00;99.90;;;;;;5093220;28;20378;-75
2021/07/29 01:56:44;;;;;;;0.40;0.20;;;16.90;99.90;;;;;;5093726;28;20385;-74
2021/07/29 01:59:10;;;;;;;0.40;0.23;;;17.00;99.90;;;;;;5093419;28;20394;-75
2021/07/29 02:01:37;;;;;;;0.40;0.20;;;17.00;99.90;;;;;;5093469;28;20743;-75
2021/07/29 02:04:03;;;;;;;0.40;0.20;;;17.00;99.90;;;;;;5093762;28;20750;-74
2021/07/29 02:06:29;;;;;;;0.40;0.20;;;16.90;99.90;;;;;;5093635;28;20461;-75
2021/07/29 02:08:55;;;;;;;0.40;0.20;;;16.90;99.90;;;;;;5093958;28;20477;-75
2021/07/29 02:11:21;;;;;;;0.40;0.20;;;16.90;99.90;;;;;;5092888;28;21154;-74
2021/07/29 02:13:46;;;;;;;0.40;0.20;;;16.90;99.90;;;;;;5093898;28;20386;-75
2021/07/29 02:16:13;;;;;;;0.40;0.20;;;17.00;99.90;;;;;;5092955;28;20779;-75
2021/07/29 02:18:39;;;;;;;0.40;0.20;;;17.00;99.90;;;;;;5093993;28;20382;-75
2021/07/29 02:21:08;;;;;;;0.40;0.20;;;16.90;99.90;;;;;;5093073;28;20474;-75
2021/07/29 02:23:35;;;;;;;0.40;0.20;;;16.90;99.90;;;;;;5093637;28;20431;-75
2021/07/29 02:26:00;;;;;;;0.40;0.20;;;16.90;99.90;;;;;;5075212;28;20405;-75
2021/07/29 02:28:26;;;;;;;0.40;0.20;;;17.00;99.90;;;;;;5074343;28;20890;-75
2021/07/29 02:30:53;;;;;;;0.40;0.20;;;17.00;99.90;;;;;;5093178;28;20441;-75
2021/07/29 02:33:19;;;;;;;0.40;0.20;;;17.00;99.90;;;;;;5092735;28;20382;-74
2021/07/29 02:35:48;;;;;;;0.40;0.20;;;17.00;99.90;;;;;;5092846;28;20397;-75
2021/07/29 02:38:15;;;;;;;0.40;0.20;;;17.10;99.90;;;;;;5092675;28;20492;-75
2021/07/29 02:40:40;;;;;;;0.40;0.20;;;17.10;99.90;;;;;;5093487;28;20378;-75
2021/07/29 02:43:06;;;;;;;0.40;0.20;;;16.90;99.90;;;;;;5092539;28;20877;-74
2021/07/29 02:45:32;;;;;;;0.40;0.20;;;17.00;99.90;;;;;;5093039;28;20458;-74
2021/07/29 02:47:57;;;;;;;0.40;0.30;;;17.00;99.90;;;;;;5092963;28;20669;-75
2021/07/29 02:50:23;;;;;;;0.40;0.20;;;16.90;99.90;;;;;;5091968;28;20648;-75
2021/07/29 02:52:48;;;;;;;0.40;0.22;;;17.00;99.90;;;;;;5093002;28;20858;-76
2021/07/29 02:55:14;;;;;;;0.40;0.20;;;16.90;99.90;;;;;;5073982;28;20432;-75
2021/07/29 02:57:40;;;;;;;0.40;0.20;;;17.10;99.90;;;;;;5074765;28;20473;-75
2021/07/29 03:00:06;;;;;;;0.40;0.20;;;17.10;99.90;;;;;;5092365;28;20386;-74
2021/07/29 03:02:32;;;;;;;0.40;0.20;;;17.00;99.90;;;;;;5091597;28;20397;-75
2021/07/29 03:04:57;;;;;;;0.40;0.30;;;17.10;99.90;;;;;;5092629;28;20735;-76
2021/07/29 03:07:23;;;;;;;0.40;0.20;;;17.00;99.90;;;;;;5092155;28;20382;-74
2021/07/29 03:09:49;;;;;;;0.40;0.20;;;17.00;99.90;;;;;;5092814;28;20483;-75
2021/07/29 03:12:14;;;;;;;0.40;0.20;;;17.00;99.90;;;;;;5091831;28;20455;-75
2021/07/29 03:14:40;;;;;;;0.40;0.20;;;17.10;99.90;;;;;;5092434;28;20866;-75
2021/07/29 03:17:06;;;;;;;0.40;0.20;;;17.10;99.90;;;;;;5092503;28;20378;-75
2021/07/29 03:19:31;;;;;;;0.40;0.20;;;17.20;99.90;;;;;;5091983;28;20374;-75
2021/07/29 03:21:57;;;;;;;0.40;0.20;;;17.20;99.90;;;;;;5092459;28;20389;-75
2021/07/29 03:24:23;;;;;;;0.40;0.20;;;17.20;99.90;;;;;;5091562;28;20378;-74
2021/07/29 03:26:48;;;;;;;0.40;0.20;;;17.30;99.90;;;;;;5092022;28;20804;-75
2021/07/29 03:29:14;;;;;;;0.40;0.30;;;17.30;99.90;;;;;;5091225;28;20400;-75
2021/07/29 03:31:40;;;;;;;0.40;0.30;;;17.50;99.90;;;;;;5092219;28;20409;-75
2021/07/29 03:34:05;;;;;;;0.40;0.30;;;17.50;99.90;;;;;;5091918;28;20378;-75
2021/07/29 03:36:31;;;;;;;0.40;0.20;;;17.50;99.90;;;;;;5091590;28;20367;-75
2021/07/29 03:38:58;;;;;;;0.40;0.20;;;17.50;99.90;;;;;;5092420;28;20382;-75
2021/07/29 03:41:24;;;;;;;0.40;0.20;;;17.50;99.90;;;;;;5091336;28;20428;-75
2021/07/29 03:43:49;;;;;;;0.40;0.20;;;17.50;99.90;;;;;;5091841;28;20379;-75
2021/07/29 03:46:15;;;;;;;0.40;0.20;;;17.60;99.90;;;;;;5106858;28;20459;-75
2021/07/29 03:48:40;;;;;;;0.40;0.20;;;17.60;99.90;;;;;;5090819;28;20418;-75
2021/07/29 03:51:12;;;;;;;0.40;0.30;;;17.50;99.90;;;;;;5091403;28;20416;-75
2021/07/29 03:53:38;;;;;;;0.40;0.20;;;17.60;99.90;;;;;;5091988;28;20372;-74
2021/07/29 03:56:03;;;;;;;0.40;0.30;;;17.60;99.90;;;;;;5091719;28;20469;-75
2021/07/29 03:58:29;;;;;;;0.40;0.20;;;17.60;99.90;;;;;;5091069;28;20390;-75
2021/07/29 04:00:58;;;;;;;0.40;0.20;;;17.70;99.90;;;;;;5091695;28;20387;-75
2021/07/29 04:03:23;;;;;;;0.40;0.20;;;17.80;99.90;;;;;;5106921;28;20870;-74
2021/07/29 04:05:49;;;;;;;1.50;0.70;;;17.90;99.90;;;;;;5092094;28;20457;-75
2021/07/29 04:08:14;;;;;;;0.40;0.20;;;17.90;99.90;;;;;;5088403;28;20386;-75
2021/07/29 04:10:40;;;;;;;0.40;0.20;;;17.90;99.90;;;;;;5086625;28;20878;-76
2021/07/29 04:13:06;;;;;;;0.40;0.20;;;17.80;99.90;;;;;;5088880;28;20399;-77
2021/07/29 04:15:31;;;;;;;0.40;0.20;;;17.80;99.90;;;;;;5090034;28;21237;-76
2021/07/29 04:17:57;;;;;;;0.40;0.30;;;17.90;99.90;;;;;;5087764;28;20416;-77
2021/07/29 04:20:23;;;;;;;0.40;0.30;;;17.80;99.90;;;;;;5085409;28;20396;-76
2021/07/29 04:22:49;;;;;;;0.40;0.20;;;17.90;99.90;;;;;;5089030;28;20382;-76
2021/07/29 04:25:14;;;;;;;0.40;0.20;;;17.90;99.90;;;;;;5088098;28;20382;-76
2021/07/29 04:27:40;;;;;;;0.40;0.20;;;18.00;99.90;;;;;;5088381;28;20463;-77
2021/07/29 04:30:06;;;;;;;0.40;0.20;;;17.90;99.90;;;;;;5087646;28;20455;-77
2021/07/29 04:32:35;;;;;;;0.40;0.20;;;17.90;99.90;;;;;;5087331;28;20378;-76
2021/07/29 04:35:01;;;;;;;0.40;0.20;;;18.00;99.90;;;;;;5070189;28;20393;-77
2021/07/29 04:37:26;;;;;;;0.40;0.30;;;18.00;99.90;;;;;;5085581;28;20378;-77
2021/07/29 04:39:52;;;;;;;0.40;0.30;;;18.00;99.90;;;;;;5087537;28;20393;-76
2021/07/29 04:42:17;;;;;;;0.40;0.20;;;18.10;99.90;;;;;;5087615;28;20378;-76
2021/07/29 04:44:43;;;;;;;0.40;0.20;;;18.10;99.90;;;;;;5088234;28;20427;-77
2021/07/29 04:47:09;;;;;;;0.40;0.30;;;18.20;99.90;;;;;;5088363;28;20803;-77
2021/07/29 04:49:34;;;;;;;0.40;0.30;;;18.20;99.90;;;;;;5087353;28;20444;-76
2021/07/29 04:52:00;;;;;;;0.40;0.20;;;18.10;99.90;;;;;;5087767;28;20751;-77
2021/07/29 04:54:26;;;;;;;0.40;0.20;;;18.10;99.90;;;;;;5087062;28;20854;-76
2021/07/29 04:56:51;;;;;;;0.40;0.20;;;18.20;99.90;;;;;;5088521;28;20417;-76
2021/07/29 04:59:19;;;;;;;0.40;0.20;;;18.30;99.90;;;;;;5087134;28;20392;-76
2021/07/29 05:01:45;;;;;;;0.40;0.20;;;18.30;99.90;;;;;;5086762;28;20427;-78
2021/07/29 05:04:11;;;;;;;0.40;0.30;;;18.30;99.90;;;;;;5088509;28;20378;-78
2021/07/29 05:06:37;;;;;;;0.40;0.20;;;18.30;99.90;;;;;;5086998;28;20418;-78
2021/07/29 05:09:03;;;;;;;0.40;0.20;;;18.20;99.90;;;;;;5086944;28;20384;-78
2021/07/29 05:11:29;;;;;;;0.40;0.20;;;18.60;99.90;;;;;;5086070;28;20410;-78
2021/07/29 05:13:55;;;;;;;0.40;0.20;;;18.70;99.90;;;;;;5087678;28;20409;-78
2021/07/29 05:16:21;;;;;;;0.40;0.20;;;18.70;99.90;;;;;;5087597;28;20398;-78
2021/07/29 05:18:47;;;;;;;0.40;0.20;;;18.70;99.90;;;;;;5088125;28;20881;-78
2021/07/29 05:21:13;;;;;;;0.40;0.20;;;18.90;99.90;;;;;;5087338;28;20452;-77
2021/07/29 05:23:38;;;;;;;0.40;0.20;;;19.70;99.90;;;;;;5087442;28;20373;-78
2021/07/29 05:26:04;;;;;;;0.40;0.30;;;19.30;99.90;;;;;;5087996;28;20402;-78
2021/07/29 05:28:29;;;;;;;0.40;0.20;;;19.20;99.90;;;;;;5086436;28;20917;-78
2021/07/29 05:30:56;;;;;;;0.40;0.20;;;19.10;99.90;;;;;;5085331;28;20409;-77
2021/07/29 05:33:21;;;;;;;0.40;0.30;;;18.90;99.90;;;;;;5086253;28;20442;-77
2021/07/29 05:35:47;;;;;;;0.40;0.20;;;18.80;99.90;;;;;;5070438;28;20862;-77
2021/07/29 05:38:13;;;;;;;0.40;0.20;;;18.70;99.90;;;;;;5067890;28;20631;-77
2021/07/29 05:40:38;;;;;;;0.40;0.20;;;18.70;99.90;;;;;;5086980;28;20386;-76
2021/07/29 05:43:04;;;;;;;0.40;0.20;;;18.70;99.90;;;;;;5087359;28;20378;-76
2021/07/29 05:45:32;;;;;;;0.40;0.30;;;18.80;99.90;;;;;;5087244;28;20469;-76
2021/07/29 05:47:58;;;;;;;0.40;0.30;;;19.10;99.90;;;;;;5086862;28;20390;-76
2021/07/29 05:50:24;;;;;;;0.40;0.30;;;19.20;99.90;;;;;;5084864;28;20527;-79
2021/07/29 05:52:49;;;;;;;0.40;0.30;;;19.30;99.90;;;;;;5082668;28;20845;-78
2021/07/29 05:55:15;;;;;;;0.40;0.23;;;19.30;99.90;;;;;;5070729;28;20413;-77
2021/07/29 05:57:40;;;;;;;0.40;0.20;;;19.20;99.90;;;;;;5089662;28;20377;-78
2021/07/29 06:00:07;;;;;;;0.40;0.40;;;19.20;99.90;;;;;;5089515;28;20374;-79
2021/07/29 06:02:32;;;;;;;0.40;0.20;;;19.30;99.90;;;;;;5089163;28;20902;-78
2021/07/29 06:04:58;;;;;;;0.40;0.20;;;19.50;99.90;;;;;;5089906;28;20378;-79
2021/07/29 06:07:26;;;;;;;0.40;0.30;;;19.50;99.90;;;;;;5088892;28;20386;-79
2021/07/29 06:09:52;;;;;;;0.40;0.30;;;19.50;99.90;;;;;;5089835;28;20407;-80
2021/07/29 06:12:24;;;;;;;0.40;0.30;;;19.70;99.90;;;;;;5089876;28;20433;-77
2021/07/29 06:14:53;;;;;;;0.40;0.20;;;20.00;99.90;;;;;;5093074;28;20553;-76
2021/07/29 06:17:24;;;;;;;0.40;0.30;;;19.70;99.90;;;;;;5092496;28;20392;-75
2021/07/29 06:19:49;;;;;;;0.40;0.20;;;19.70;99.90;;;;;;5093336;28;20387;-77
2021/07/29 06:22:15;;;;;;;0.47;0.35;;;19.70;99.90;;;;;;5092932;28;20738;-75
2021/07/29 06:24:41;;;;;;;0.40;0.20;;;19.70;99.90;;;;;;5092300;28;20374;-77
2021/07/29 06:27:07;;;;;;;0.40;0.20;;;19.70;99.90;;;;;;5092581;28;20413;-78
2021/07/29 06:29:33;;;;;;;0.40;0.30;;;19.70;99.90;;;;;;5091978;28;20616;-76
2021/07/29 06:31:58;;;;;;;0.40;0.30;;;19.80;99.90;;;;;;5092997;28;20745;-77
2021/07/29 06:34:24;;;;;;;0.40;0.20;;;19.70;99.90;;;;;;5074106;28;20394;-76
2021/07/29 06:36:49;;;;;;;0.40;0.20;;;19.70;99.90;;;;;;5093071;28;20374;-76
2021/07/29 06:39:15;;;;;;;0.40;0.30;;;19.80;99.90;;;;;;5093125;28;20374;-76
2021/07/29 06:41:41;;;;;;;0.40;0.20;;;19.80;99.90;;;;;;5092453;28;20381;-76
2021/07/29 06:44:07;;;;;;;0.40;0.20;;;19.80;99.90;;;;;;5092939;28;20432;-76
2021/07/29 06:46:38;;;;;;;0.40;0.20;;;19.90;99.90;;;;;;5092384;28;20378;-77
2021/07/29 06:49:07;;;;;;;0.40;0.20;;;19.80;99.90;;;;;;5092700;28;20418;-76
2021/07/29 06:51:36;;;;;;;0.40;0.30;;;19.90;99.90;;;;;;5092268;28;20437;-77
2021/07/29 06:54:06;;;;;;;0.40;0.20;;;19.90;99.90;;;;;;5095030;28;20388;-77
2021/07/29 06:56:32;;;;;;;0.40;0.20;;;19.90;99.90;;;;;;5099564;28;20388;-77
2021/07/29 06:58:58;;;;;;;0.40;0.20;;;20.00;99.90;;;;;;5105462;28;20445;-75
2021/07/29 07:01:24;;;;;;;0.40;0.30;;;20.00;99.90;;;;;;5105361;28;20382;-75
2021/07/29 07:03:50;;;;;;;0.40;0.20;;;20.10;99.90;;;;;;5092721;28;20386;-75
2021/07/29 07:06:16;;;;;;;0.40;0.30;;;20.20;99.90;;;;;;5093074;28;20527;-77
2021/07/29 07:08:42;;;;;;;0.40;0.20;;;20.30;99.90;;;;;;5073256;28;20437;-76
2021/07/29 07:11:14;;;;;;;0.40;0.20;;;20.30;99.90;;;;;;5108084;28;20410;-75
2021/07/29 07:13:40;;;;;;;0.40;0.20;;;20.30;99.90;;;;;;5115751;27;20392;-78
2021/07/29 07:16:09;;;;;;;0.40;0.20;;;20.20;99.90;;;;;;5099594;28;20382;-76
2021/07/29 07:18:34;;;;;;;0.40;0.30;;;20.20;99.90;;;;;;5097743;28;20943;-77
2021/07/29 07:21:05;;;;;;;0.40;0.30;;;20.10;99.90;;;;;;5103018;28;20483;-77
2021/07/29 07:23:30;;;;;;;0.40;0.30;;;20.30;99.90;;;;;;5111121;28;20801;-76
2021/07/29 07:25:56;;;;;;;0.40;0.20;;;20.30;99.90;;;;;;5101716;28;20396;-77
2021/07/29 07:28:21;;;;;;;0.40;0.20;;;20.40;99.90;;;;;;5094953;28;20399;-77
2021/07/29 07:30:47;;;;;;;0.40;0.30;;;20.40;99.90;;;;;;5093072;28;20427;-76
2021/07/29 07:33:13;;;;;;;0.40;0.20;;;20.30;99.90;;;;;;5111377;28;20376;-78
2021/07/29 07:35:38;;;;;;;0.40;0.20;;;20.30;99.90;;;;;;5110961;28;20417;-76
2021/07/29 07:38:04;;;;;;;0.40;0.20;;;20.30;99.90;;;;;;5112547;28;20476;-78
2021/07/29 07:40:30;;;;;;;0.40;0.20;;;20.30;99.90;;;;;;5112329;28;20384;-77
2021/07/29 07:42:56;;;;;;;0.40;0.20;;;20.30;99.90;;;;;;5112895;28;20743;-78
2021/07/29 07:45:22;;;;;;;0.40;0.20;;;20.30;99.90;;;;;;5112186;28;20441;-78
2021/07/29 07:47:48;;;;;;;0.40;0.20;;;20.30;99.90;;;;;;5112793;28;20380;-75
2021/07/29 07:50:14;;;;;;;0.40;0.22;;;20.30;99.90;;;;;;5112654;28;20373;-77
2021/07/29 07:52:39;;;;;;;0.40;0.30;;;20.30;99.90;;;;;;5112359;28;20868;-77
2021/07/29 07:55:06;;;;;;;0.40;0.20;;;20.20;99.90;;;;;;5112820;28;20710;-76
2021/07/29 07:57:31;;;;;;;0.40;0.30;;;20.30;99.90;;;;;;5112294;28;20376;-79
2021/07/29 07:59:58;;;;;;;0.40;0.20;;;20.20;99.90;;;;;;5112502;28;20442;-77
2021/07/29 08:02:25;;;;;;;0.40;0.40;;;20.20;99.90;;;;;;5112091;28;20781;-77
2021/07/29 08:04:51;;;;;;;0.40;0.20;;;20.20;99.90;;;;;;5112765;28;20380;-76
2021/07/29 08:07:17;;;;;;;0.40;0.20;;;20.40;99.90;;;;;;5112933;28;20401;-77
2021/07/29 08:09:43;;;;;;;0.40;0.20;;;20.30;99.90;;;;;;5112169;28;20384;-77
2021/07/29 08:12:08;;;;;;;0.40;0.30;;;20.30;99.90;;;;;;5112156;28;20546;-76
2021/07/29 08:14:35;;;;;;;0.40;0.30;;;20.30;99.90;;;;;;5112340;28;20383;-77
2021/07/29 08:17:02;;;;;;;0.40;0.20;;;20.30;99.90;;;;;;5095377;28;20397;-77
2021/07/29 08:19:28;;;;;;;0.40;0.30;;;20.30;99.90;;;;;;5091673;28;20389;-77
2021/07/29 08:21:54;;;;;;;0.40;0.20;;;20.30;99.90;;;;;;5091909;28;20386;-79
2021/07/29 08:24:20;;;;;;;0.40;0.30;;;20.40;99.90;;;;;;5092371;28;20443;-78
2021/07/29 08:26:45;;;;;;;0.40;0.20;;;20.60;99.90;;;;;;5090861;28;20880;-77
2021/07/29 08:29:11;;;;;;;0.40;0.20;;;20.60;99.80;;;;;;5092208;28;20389;-76
2021/07/29 08:31:36;;;;;;;0.40;0.20;;;20.60;99.90;;;;;;5091307;28;20412;-77
2021/07/29 08:34:02;;;;;;;0.40;0.30;;;20.60;99.70;;;;;;5091680;28;20469;-79
2021/07/29 08:36:28;;;;;;;0.40;0.20;;;20.70;99.40;;;;;;5091068;28;20700;-77
2021/07/29 08:38:53;;;;;;;0.40;0.30;;;20.80;99.50;;;;;;5091644;28;20409;-76
2021/07/29 08:41:19;;;;;;;0.40;0.30;;;20.70;99.40;;;;;;5091710;28;20863;-78
2021/07/29 08:43:46;;;;;;;0.40;0.30;;;20.80;99.10;;;;;;5091213;28;20371;-78
2021/07/29 08:46:18;;;;;;;0.40;0.20;;;20.90;99.30;;;;;;5091412;28;20374;-82
2021/07/29 08:48:45;;;;;;;0.40;0.20;;;20.90;98.70;;;;;;5090922;28;20946;-78
2021/07/29 08:51:13;;;;;;;0.40;0.20;;;20.80;98.00;;;;;;5091790;28;20409;-76
2021/07/29 08:53:39;;;;;;;0.40;0.20;;;20.90;98.20;;;;;;5091145;28;20385;-76
2021/07/29 08:56:04;;;;;;;0.40;0.20;;;20.90;98.90;;;;;;5091364;28;20858;-78
2021/07/29 08:58:30;;;;;;;0.40;0.20;;;21.10;98.90;;;;;;5091015;28;20374;-76
2021/07/29 09:01:04;;;;;;;0.40;0.20;;;21.30;98.20;;;;;;5091651;28;20382;-75
2021/07/29 09:03:30;;;;;;;0.40;0.30;;;21.40;97.90;;;;;;5091078;28;20443;-79
2021/07/29 09:06:12;;;;;;;0.40;0.30;;;21.30;97.60;;;;;;5073426;28;20386;-76
2021/07/29 09:08:49;;;;;;;0.40;0.30;;;21.30;97.40;;;;;;5091168;28;20385;-76
2021/07/29 09:11:35;;;;;;;0.40;0.30;;;21.30;97.50;;;;;;5091441;28;20413;-78
2021/07/29 09:14:17;;;;;;;0.40;0.20;;;21.40;96.60;;;;;;5091351;28;20386;-76
2021/07/29 09:17:03;;;;;;;0.40;0.30;;;21.40;96.30;;;;;;5090815;28;20722;-76
2021/07/29 09:19:35;;;;;;;0.40;0.30;;;21.60;97.00;;;;;;5090969;28;20370;-75
2021/07/29 09:22:06;;;;;;;0.40;0.20;;;21.50;96.90;;;;;;5091266;28;20383;-76
2021/07/29 09:24:32;;;;;;;0.40;0.30;;;21.70;97.10;;;;;;5090775;28;20866;-75
2021/07/29 09:26:59;;;;;;;0.40;0.30;;;21.80;96.60;;;;;;5090504;28;20413;-76
2021/07/29 09:29:27;;;;;;;0.40;0.30;;;21.80;96.10;;;;;;5090399;28;20396;-76
2021/07/29 09:32:06;;;;;;;0.40;0.30;;;21.50;96.40;;;;;;5090018;28;20584;-76
2021/07/29 09:34:47;;;;;;;0.40;0.20;;;21.50;95.90;;;;;;5089788;28;20401;-76
2021/07/29 09:37:13;;;;;;;0.40;0.30;;;21.70;96.20;;;;;;5090345;28;20382;-76
2021/07/29 09:39:39;;;;;;;0.40;0.20;;;21.60;94.90;;;;;;5090535;28;20378;-79
2021/07/29 09:42:15;;;;;;;0.40;0.30;;;21.80;94.50;;;;;;5090578;28;20874;-77
2021/07/29 09:44:46;;;;;;;0.40;0.20;;;21.70;94.90;;;;;;5090675;28;20389;-76
2021/07/29 09:47:12;;;;;;;0.40;0.20;;;21.80;93.90;;;;;;5092115;28;20456;-76
2021/07/29 09:49:38;;;;;;;0.40;0.20;;;22.00;94.60;;;;;;5094480;28;20767;-77
2021/07/29 09:52:05;;;;;;;0.40;0.20;;;22.00;93.90;;;;;;5095024;28;20774;-75
2021/07/29 09:54:31;;;;;;;0.40;0.30;;;21.90;93.10;;;;;;5094155;28;20877;-77
2021/07/29 09:56:57;;;;;;;0.40;0.20;;;22.00;92.20;;;;;;5095376;28;20382;-76
2021/07/29 09:59:22;;;;;;;0.40;0.30;;;22.00;92.10;;;;;;5094737;28;20413;-74
2021/07/29 10:01:51;;;;;;;0.40;0.30;;;22.20;92.70;;;;;;5094091;28;20389;-75
2021/07/29 10:04:23;;;;;;;0.40;0.20;;;22.20;93.10;;;;;;5094842;28;20382;-76
2021/07/29 10:06:50;;;;;;;0.40;0.20;;;22.20;93.00;;;;;;5094073;28;20385;-76
2021/07/29 10:09:18;;;;;;;0.40;0.20;;;22.20;93.20;;;;;;5094778;28;20383;-77
2021/07/29 10:11:47;;;;;;;0.40;0.30;;;22.50;93.30;;;;;;5093957;28;20750;-75
2021/07/29 10:14:13;;;;;;;0.40;0.20;;;22.40;91.40;;;;;;5094697;28;20434;-75
2021/07/29 10:16:47;;;;;;;0.40;0.30;;;22.30;92.10;;;;;;5093869;28;20477;-77
2021/07/29 10:19:13;;;;;;;0.40;0.20;;;22.30;91.10;;;;;;5094595;28;20851;-77
2021/07/29 10:21:41;;;;;;;0.40;0.30;;;22.20;91.30;;;;;;5093720;28;20390;-74
2021/07/29 10:24:08;;;;;;;0.40;0.20;;;22.30;91.30;;;;;;5094454;28;20877;-76
2021/07/29 10:27:01;;;;;;;0.40;0.20;;;22.50;91.50;;;;;;5093609;28;20378;-76
2021/07/29 10:29:30;;;;;;;0.40;0.20;;;22.60;91.10;;;;;;5081075;28;20409;-76
2021/07/29 10:32:09;;;;;;;0.40;0.20;;;22.60;91.40;;;;;;5075994;28;20494;-76
2021/07/29 10:34:35;;;;;;;0.40;0.20;;;22.40;91.50;;;;;;5093673;28;20390;-76
2021/07/29 10:37:05;;;;;;;0.40;0.20;;;22.50;92.10;;;;;;5076044;28;20390;-81
2021/07/29 10:39:31;;;;;;;0.40;0.20;;;22.40;90.30;;;;;;5093696;28;20480;-75
2021/07/29 10:42:00;;;;;;;0.40;0.20;;;22.40;90.70;;;;;;5094485;28;20783;-77
2021/07/29 10:44:32;;;;;;;0.40;0.20;;;22.50;90.50;;;;;;5094143;28;20391;-78
2021/07/29 10:47:02;;;;;;;0.40;0.30;;;22.50;90.90;;;;;;5094062;28;20386;-75
2021/07/29 10:49:57;;;;;;;0.40;0.20;;;22.60;90.90;;;;;;5093849;28;20882;-78
2021/07/29 10:52:23;;;;;;;0.40;0.20;;;22.40;90.60;;;;;;5072040;28;20435;-77
2021/07/29 10:54:52;;;;;;;0.40;0.20;;;22.40;91.60;;;;;;5093030;28;20373;-77
2021/07/29 10:57:18;;;;;;;0.40;0.30;;;22.60;92.00;;;;;;5093827;28;20440;-76
2021/07/29 10:59:43;;;;;;;0.40;0.20;;;22.60;92.20;;;;;;5093241;28;20381;-76
2021/07/29 11:02:13;;;;;;;0.40;0.20;;;22.80;91.60;;;;;;5093805;28;20847;-76
2021/07/29 11:05:09;;;;;;;0.40;0.20;;;22.80;91.50;;;;;;5093072;28;20803;-75
2021/07/29 11:07:40;;;;;;;0.40;0.20;;;22.80;90.80;;;;;;5061647;28;20844;-75
2021/07/29 11:10:09;;;;;;;0.40;0.20;;;22.90;91.40;;;;;;5075583;28;20468;-75
2021/07/29 11:12:35;;;;;;;0.50;0.50;;;22.80;90.30;;;;;;5074698;28;20410;-76
2021/07/29 11:15:05;;;;;;;0.40;0.40;;;23.20;90.40;;;;;;5093357;28;20493;-74
2021/07/29 11:17:31;;;;;;;0.40;0.30;;;23.30;90.80;;;;;;5093338;28;20374;-74
2021/07/29 11:19:57;;;;;;;0.40;0.20;;;23.50;90.30;;;;;;5092813;28;20392;-75
2021/07/29 11:22:23;;;;;;;0.40;0.20;;;23.60;89.70;;;;;;5093362;28;20506;-76
2021/07/29 11:24:48;;;;;;;0.50;0.40;;;23.60;89.00;;;;;;5092729;28;20386;-78
2021/07/29 11:27:14;;;;;;;0.40;0.20;;;23.70;89.40;;;;;;5092931;28;20410;-76
2021/07/29 11:29:56;;;;;;;0.40;0.30;;;24.10;91.10;;;;;;5074473;28;20397;-79
2021/07/29 11:32:22;;;;;;;0.40;0.30;;;24.20;86.10;;;;;;5093203;28;20414;-75
2021/07/29 11:34:58;;;;;;;0.40;0.30;;;24.10;87.50;;;;;;5092386;28;20453;-79
2021/07/29 11:37:35;;;;;;;0.40;0.20;;;23.80;86.00;;;;;;5092583;28;20418;-78
2021/07/29 11:40:01;;;;;;;0.40;0.30;;;23.80;86.90;;;;;;5093118;28;20382;-76
2021/07/29 11:42:35;;;;;;;0.40;0.30;;;23.70;86.80;;;;;;5074937;28;20473;-80
2021/07/29 11:45:00;;;;;;;0.40;0.30;;;24.00;84.70;;;;;;5074743;28;20421;-76
2021/07/29 11:47:40;;;;;;;0.40;0.30;;;24.60;83.70;;;;;;5092943;28;20404;-78
2021/07/29 11:50:06;;;;;;;0.40;0.30;;;24.80;82.00;;;;;;5092994;28;20437;-77
2021/07/29 11:52:32;;;;;;;0.40;0.30;;;25.70;81.90;;;;;;5092683;28;20456;-77
2021/07/29 11:55:08;;;;;;;0.40;0.30;;;25.50;78.30;;;;;;5091827;28;20461;-81
2021/07/29 11:57:34;;;;;;;0.40;0.20;;;25.10;78.10;;;;;;5107983;28;20465;-76
2021/07/29 12:00:00;;;;;;;0.40;0.20;;;25.80;78.70;;;;;;5092368;28;20465;-82
2021/07/29 12:02:26;;;;;;;0.40;0.30;;;25.30;76.90;;;;;;5092331;28;20380;-79
2021/07/29 12:04:52;;;;;;;0.40;0.27;;;26.00;76.80;;;;;;5091745;28;20378;-76
2021/07/29 12:07:18;;;;;;;0.40;0.30;;;25.70;75.70;;;;;;5092051;28;20416;-75
2021/07/29 12:09:48;;;;;;;0.45;0.43;;;25.20;79.00;;;;;;5091188;28;20386;-76
2021/07/29 12:12:16;;;;;;;0.40;0.20;;;25.40;79.40;;;;;;5092317;28;20402;-76
2021/07/29 12:14:45;;;;;;;0.40;0.30;;;25.40;77.80;;;;;;5091712;28;20428;-77
2021/07/29 12:17:21;;;;;;;0.40;0.20;;;24.90;78.50;;;;;;5092522;28;20371;-76
2021/07/29 12:20:03;;;;;;;0.40;0.30;;;25.20;80.40;;;;;;5091631;28;20388;-76
2021/07/29 12:22:29;;;;;;;0.40;0.20;;;25.50;79.80;;;;;;5092118;28;20386;-78
2021/07/29 12:24:56;;;;;;;0.40;0.20;;;25.60;78.50;;;;;;5091437;28;20389;-77
2021/07/29 12:27:22;;;;;;;0.40;0.22;;;25.80;78.90;;;;;;5091868;28;20800;-77
2021/07/29 12:29:49;;;;;;;0.40;0.20;;;25.60;78.20;;;;;;5073174;28;20420;-76
2021/07/29 12:32:29;;;;;;;0.40;0.30;;;25.60;76.90;;;;;;5091943;28;20399;-76
2021/07/29 12:34:55;;;;;;;0.40;0.30;;;25.40;77.60;;;;;;5091293;28;20431;-76
2021/07/29 12:37:56;;;;;;;0.40;0.20;;;25.50;78.10;;;;;;5092185;28;20390;-76
2021/07/29 12:40:25;;;;;;;0.40;0.20;;;25.70;77.20;;;;;;5073576;28;20875;-74
2021/07/29 12:42:50;;;;;;;0.40;0.20;;;25.70;77.90;;;;;;5091261;28;20405;-75
2021/07/29 12:45:16;;;;;;;0.40;0.30;;;25.50;79.70;;;;;;5091792;28;20378;-75
2021/07/29 12:48:05;;;;;;;0.40;0.20;;;26.10;76.20;;;;;;5090858;28;20514;-75
2021/07/29 12:50:41;;;;;;;0.40;0.20;;;26.10;76.90;;;;;;5091812;28;20389;-75
2021/07/29 12:53:16;;;;;;;0.40;0.20;;;26.00;79.30;;;;;;5091424;28;20397;-76